sensor_id;sensor_type;location;lat;lon;timestamp;P1;durP1;ratioP1;P2;durP2;ratioP2
70106;SDS011;57473;37.508;15.080;2022-07-29T00:01:40;23.55;;;11.35;;
70106;SDS011;57473;37.508;15.080;2022-07-29T00:04:07;20.13;;;11.77;;
70106;SDS011;57473;37.508;15.080;2022-07-29T00:06:35;17.98;;;11.80;;
70106;SDS011;57473;37.508;15.080;2022-07-29T00:09:02;18.20;;;10.70;;
70106;SDS011;57473;37.508;15.080;2022-07-29T00:11:29;23.27;;;11.05;;
70106;SDS011;57473;37.508;15.080;2022-07-29T00:13:57;18.25;;;10.93;;
70106;SDS011;57473;37.508;15.080;2022-07-29T00:16:24;20.50;;;11.70;;
70106;SDS011;57473;37.508;15.080;2022-07-29T00:18:51;24.02;;;10.40;;
70106;SDS011;57473;37.508;15.080;2022-07-29T00:21:19;17.42;;;10.48;;
70106;SDS011;57473;37.508;15.080;2022-07-29T00:23:46;18.38;;;10.63;;
70106;SDS011;57473;37.508;15.080;2022-07-29T00:26:13;16.58;;;11.07;;
70106;SDS011;57473;37.508;15.080;2022-07-29T00:28:40;18.20;;;11.05;;
70106;SDS011;57473;37.508;15.080;2022-07-29T00:31:07;16.45;;;11.23;;
70106;SDS011;57473;37.508;15.080;2022-07-29T00:33:35;16.70;;;10.70;;
70106;SDS011;57473;37.508;15.080;2022-07-29T00:36:02;18.08;;;11.32;;
70106;SDS011;57473;37.508;15.080;2022-07-29T00:38:29;19.90;;;11.25;;
70106;SDS011;57473;37.508;15.080;2022-07-29T00:40:57;24.90;;;11.88;;
70106;SDS011;57473;37.508;15.080;2022-07-29T00:43:24;18.27;;;11.30;;
70106;SDS011;57473;37.508;15.080;2022-07-29T00:45:51;20.05;;;11.07;;
70106;SDS011;57473;37.508;15.080;2022-07-29T00:48:18;17.85;;;11.43;;
70106;SDS011;57473;37.508;15.080;2022-07-29T00:50:46;23.48;;;13.55;;
70106;SDS011;57473;37.508;15.080;2022-07-29T00:53:13;19.73;;;12.10;;
70106;SDS011;57473;37.508;15.080;2022-07-29T00:55:40;17.58;;;11.15;;
70106;SDS011;57473;37.508;15.080;2022-07-29T00:58:08;17.45;;;11.80;;
70106;SDS011;57473;37.508;15.080;2022-07-29T01:00:35;17.25;;;10.43;;
70106;SDS011;57473;37.508;15.080;2022-07-29T01:03:03;19.25;;;10.45;;
70106;SDS011;57473;37.508;15.080;2022-07-29T01:05:30;16.67;;;9.82;;
70106;SDS011;57473;37.508;15.080;2022-07-29T01:08:17;15.73;;;10.38;;
70106;SDS011;57473;37.508;15.080;2022-07-29T01:10:45;17.38;;;10.02;;
70106;SDS011;57473;37.508;15.080;2022-07-29T01:13:13;16.83;;;10.68;;
70106;SDS011;57473;37.508;15.080;2022-07-29T01:15:46;16.15;;;9.93;;
70106;SDS011;57473;37.508;15.080;2022-07-29T01:18:28;15.02;;;9.77;;
70106;SDS011;57473;37.508;15.080;2022-07-29T01:29:26;16.38;;;9.30;;
70106;SDS011;57473;37.508;15.080;2022-07-29T01:32:14;16.52;;;9.52;;
70106;SDS011;57473;37.508;15.080;2022-07-29T01:34:58;11.65;;;9.48;;
70106;SDS011;57473;37.508;15.080;2022-07-29T01:37:44;11.90;;;8.70;;
70106;SDS011;57473;37.508;15.080;2022-07-29T01:43:13;15.43;;;8.82;;
70106;SDS011;57473;37.508;15.080;2022-07-29T01:45:57;12.82;;;8.18;;
70106;SDS011;57473;37.508;15.080;2022-07-29T01:48:31;11.40;;;8.23;;
70106;SDS011;57473;37.508;15.080;2022-07-29T01:51:07;15.18;;;9.00;;
70106;SDS011;57473;37.508;15.080;2022-07-29T01:56:33;13.57;;;9.07;;
70106;SDS011;57473;37.508;15.080;2022-07-29T01:59:03;14.63;;;9.65;;
70106;SDS011;57473;37.508;15.080;2022-07-29T02:01:33;12.80;;;9.38;;
70106;SDS011;57473;37.508;15.080;2022-07-29T02:04:02;15.13;;;9.57;;
70106;SDS011;57473;37.508;15.080;2022-07-29T02:06:33;17.33;;;10.17;;
70106;SDS011;57473;37.508;15.080;2022-07-29T02:09:03;13.50;;;9.10;;
70106;SDS011;57473;37.508;15.080;2022-07-29T02:11:34;14.43;;;9.65;;
70106;SDS011;57473;37.508;15.080;2022-07-29T02:14:03;12.18;;;9.27;;
70106;SDS011;57473;37.508;15.080;2022-07-29T02:16:33;12.98;;;8.95;;
70106;SDS011;57473;37.508;15.080;2022-07-29T02:19:03;15.75;;;9.07;;
70106;SDS011;57473;37.508;15.080;2022-07-29T02:21:33;16.60;;;8.70;;
70106;SDS011;57473;37.508;15.080;2022-07-29T02:24:01;15.52;;;8.68;;
70106;SDS011;57473;37.508;15.080;2022-07-29T02:26:30;15.45;;;8.85;;
70106;SDS011;57473;37.508;15.080;2022-07-29T02:29:00;12.25;;;8.45;;
70106;SDS011;57473;37.508;15.080;2022-07-29T02:31:29;9.85;;;8.10;;
70106;SDS011;57473;37.508;15.080;2022-07-29T02:34:00;13.75;;;8.93;;
70106;SDS011;57473;37.508;15.080;2022-07-29T02:36:30;14.05;;;8.82;;
70106;SDS011;57473;37.508;15.080;2022-07-29T02:38:59;11.80;;;9.10;;
70106;SDS011;57473;37.508;15.080;2022-07-29T02:41:32;14.25;;;9.27;;
70106;SDS011;57473;37.508;15.080;2022-07-29T02:44:05;12.00;;;9.55;;
70106;SDS011;57473;37.508;15.080;2022-07-29T02:46:37;16.33;;;9.32;;
70106;SDS011;57473;37.508;15.080;2022-07-29T02:49:13;14.63;;;9.32;;
70106;SDS011;57473;37.508;15.080;2022-07-29T02:51:59;16.75;;;10.35;;
70106;SDS011;57473;37.508;15.080;2022-07-29T02:54:39;14.88;;;10.30;;
70106;SDS011;57473;37.508;15.080;2022-07-29T02:57:14;12.75;;;9.15;;
70106;SDS011;57473;37.508;15.080;2022-07-29T02:59:50;14.70;;;9.90;;
70106;SDS011;57473;37.508;15.080;2022-07-29T03:02:19;17.40;;;10.93;;
70106;SDS011;57473;37.508;15.080;2022-07-29T03:04:47;14.77;;;10.35;;
70106;SDS011;57473;37.508;15.080;2022-07-29T03:07:16;16.17;;;10.85;;
70106;SDS011;57473;37.508;15.080;2022-07-29T03:09:46;15.37;;;11.00;;
70106;SDS011;57473;37.508;15.080;2022-07-29T03:12:15;19.30;;;11.45;;
70106;SDS011;57473;37.508;15.080;2022-07-29T03:14:43;22.95;;;11.80;;
70106;SDS011;57473;37.508;15.080;2022-07-29T03:17:10;16.33;;;10.80;;
70106;SDS011;57473;37.508;15.080;2022-07-29T03:19:38;15.25;;;10.68;;
70106;SDS011;57473;37.508;15.080;2022-07-29T03:22:07;16.15;;;10.77;;
70106;SDS011;57473;37.508;15.080;2022-07-29T03:24:35;22.30;;;11.20;;
70106;SDS011;57473;37.508;15.080;2022-07-29T03:27:03;17.67;;;11.25;;
70106;SDS011;57473;37.508;15.080;2022-07-29T03:29:31;18.92;;;11.93;;
70106;SDS011;57473;37.508;15.080;2022-07-29T03:32:01;16.45;;;11.63;;
70106;SDS011;57473;37.508;15.080;2022-07-29T03:34:34;23.20;;;13.18;;
70106;SDS011;57473;37.508;15.080;2022-07-29T03:37:03;20.20;;;12.07;;
70106;SDS011;57473;37.508;15.080;2022-07-29T03:39:33;18.35;;;11.52;;
70106;SDS011;57473;37.508;15.080;2022-07-29T03:42:05;20.13;;;12.63;;
70106;SDS011;57473;37.508;15.080;2022-07-29T03:44:34;19.08;;;11.68;;
70106;SDS011;57473;37.508;15.080;2022-07-29T03:47:02;23.33;;;12.63;;
70106;SDS011;57473;37.508;15.080;2022-07-29T03:49:32;18.05;;;12.85;;
70106;SDS011;57473;37.508;15.080;2022-07-29T03:52:01;21.50;;;13.20;;
70106;SDS011;57473;37.508;15.080;2022-07-29T03:54:34;20.65;;;12.40;;
70106;SDS011;57473;37.508;15.080;2022-07-29T03:57:02;18.00;;;11.00;;
70106;SDS011;57473;37.508;15.080;2022-07-29T03:59:32;15.27;;;10.32;;
70106;SDS011;57473;37.508;15.080;2022-07-29T04:02:00;17.13;;;10.30;;
70106;SDS011;57473;37.508;15.080;2022-07-29T04:04:32;17.20;;;10.60;;
70106;SDS011;57473;37.508;15.080;2022-07-29T04:07:01;15.30;;;9.88;;
70106;SDS011;57473;37.508;15.080;2022-07-29T04:09:29;13.10;;;10.20;;
70106;SDS011;57473;37.508;15.080;2022-07-29T04:11:56;13.13;;;10.60;;
70106;SDS011;57473;37.508;15.080;2022-07-29T04:14:30;15.52;;;9.40;;
70106;SDS011;57473;37.508;15.080;2022-07-29T04:16:58;15.00;;;10.15;;
70106;SDS011;57473;37.508;15.080;2022-07-29T04:19:26;14.45;;;10.25;;
70106;SDS011;57473;37.508;15.080;2022-07-29T04:21:53;15.57;;;9.63;;
70106;SDS011;57473;37.508;15.080;2022-07-29T04:24:21;11.52;;;9.60;;
70106;SDS011;57473;37.508;15.080;2022-07-29T04:26:48;15.50;;;9.25;;
70106;SDS011;57473;37.508;15.080;2022-07-29T04:29:15;13.18;;;9.57;;
70106;SDS011;57473;37.508;15.080;2022-07-29T04:31:42;15.50;;;9.40;;
70106;SDS011;57473;37.508;15.080;2022-07-29T04:34:10;14.75;;;9.68;;
70106;SDS011;57473;37.508;15.080;2022-07-29T04:36:40;17.95;;;8.98;;
70106;SDS011;57473;37.508;15.080;2022-07-29T04:39:07;15.80;;;9.40;;
70106;SDS011;57473;37.508;15.080;2022-07-29T04:41:34;15.73;;;9.63;;
70106;SDS011;57473;37.508;15.080;2022-07-29T04:44:02;12.90;;;9.38;;
70106;SDS011;57473;37.508;15.080;2022-07-29T04:46:33;13.37;;;8.57;;
70106;SDS011;57473;37.508;15.080;2022-07-29T04:49:01;13.95;;;9.25;;
70106;SDS011;57473;37.508;15.080;2022-07-29T04:51:29;15.32;;;9.70;;
70106;SDS011;57473;37.508;15.080;2022-07-29T04:53:57;14.48;;;9.32;;
70106;SDS011;57473;37.508;15.080;2022-07-29T04:56:24;15.40;;;8.50;;
70106;SDS011;57473;37.508;15.080;2022-07-29T04:58:52;14.02;;;10.07;;
70106;SDS011;57473;37.508;15.080;2022-07-29T05:01:19;17.35;;;10.60;;
70106;SDS011;57473;37.508;15.080;2022-07-29T05:03:47;13.82;;;9.70;;
70106;SDS011;57473;37.508;15.080;2022-07-29T05:06:14;16.23;;;9.32;;
70106;SDS011;57473;37.508;15.080;2022-07-29T05:08:41;18.05;;;10.48;;
70106;SDS011;57473;37.508;15.080;2022-07-29T05:11:08;16.42;;;10.65;;
70106;SDS011;57473;37.508;15.080;2022-07-29T05:13:38;15.45;;;10.35;;
70106;SDS011;57473;37.508;15.080;2022-07-29T05:16:12;18.20;;;10.93;;
70106;SDS011;57473;37.508;15.080;2022-07-29T05:18:41;16.70;;;10.60;;
70106;SDS011;57473;37.508;15.080;2022-07-29T05:21:08;22.50;;;13.95;;
70106;SDS011;57473;37.508;15.080;2022-07-29T05:23:36;31.23;;;17.70;;
70106;SDS011;57473;37.508;15.080;2022-07-29T05:26:03;35.33;;;18.85;;
70106;SDS011;57473;37.508;15.080;2022-07-29T05:28:33;20.02;;;13.20;;
70106;SDS011;57473;37.508;15.080;2022-07-29T05:31:04;21.10;;;11.73;;
70106;SDS011;57473;37.508;15.080;2022-07-29T05:33:31;19.38;;;11.13;;
70106;SDS011;57473;37.508;15.080;2022-07-29T05:36:05;13.40;;;9.80;;
70106;SDS011;57473;37.508;15.080;2022-07-29T05:38:34;16.02;;;10.13;;
70106;SDS011;57473;37.508;15.080;2022-07-29T05:41:02;21.55;;;10.93;;
70106;SDS011;57473;37.508;15.080;2022-07-29T05:43:30;19.90;;;11.35;;
70106;SDS011;57473;37.508;15.080;2022-07-29T05:45:58;16.48;;;10.27;;
70106;SDS011;57473;37.508;15.080;2022-07-29T05:48:25;15.63;;;10.02;;
70106;SDS011;57473;37.508;15.080;2022-07-29T05:50:53;15.70;;;10.15;;
70106;SDS011;57473;37.508;15.080;2022-07-29T05:53:21;13.73;;;9.45;;
70106;SDS011;57473;37.508;15.080;2022-07-29T05:55:49;14.07;;;10.20;;
70106;SDS011;57473;37.508;15.080;2022-07-29T05:58:16;15.70;;;10.38;;
70106;SDS011;57473;37.508;15.080;2022-07-29T06:00:44;15.68;;;10.82;;
70106;SDS011;57473;37.508;15.080;2022-07-29T06:03:11;18.05;;;10.90;;
70106;SDS011;57473;37.508;15.080;2022-07-29T06:05:38;17.80;;;10.82;;
70106;SDS011;57473;37.508;15.080;2022-07-29T06:08:06;18.25;;;9.82;;
70106;SDS011;57473;37.508;15.080;2022-07-29T06:10:37;18.20;;;10.70;;
70106;SDS011;57473;37.508;15.080;2022-07-29T06:13:04;21.88;;;11.55;;
70106;SDS011;57473;37.508;15.080;2022-07-29T06:15:32;17.30;;;11.02;;
70106;SDS011;57473;37.508;15.080;2022-07-29T06:17:59;15.70;;;10.80;;
70106;SDS011;57473;37.508;15.080;2022-07-29T06:20:28;18.60;;;10.52;;
70106;SDS011;57473;37.508;15.080;2022-07-29T06:22:57;15.20;;;10.50;;
70106;SDS011;57473;37.508;15.080;2022-07-29T06:25:25;13.88;;;9.50;;
70106;SDS011;57473;37.508;15.080;2022-07-29T06:27:52;16.45;;;10.77;;
70106;SDS011;57473;37.508;15.080;2022-07-29T06:30:19;17.58;;;8.90;;
70106;SDS011;57473;37.508;15.080;2022-07-29T06:32:47;13.05;;;8.95;;
70106;SDS011;57473;37.508;15.080;2022-07-29T06:35:14;16.25;;;9.13;;
70106;SDS011;57473;37.508;15.080;2022-07-29T06:38:02;14.23;;;8.40;;
70106;SDS011;57473;37.508;15.080;2022-07-29T06:40:49;11.55;;;8.07;;
70106;SDS011;57473;37.508;15.080;2022-07-29T06:43:36;11.65;;;8.10;;
70106;SDS011;57473;37.508;15.080;2022-07-29T06:46:20;12.65;;;7.95;;
70106;SDS011;57473;37.508;15.080;2022-07-29T06:48:49;10.38;;;8.45;;
70106;SDS011;57473;37.508;15.080;2022-07-29T06:51:17;10.70;;;8.25;;
70106;SDS011;57473;37.508;15.080;2022-07-29T06:53:49;12.32;;;7.85;;
70106;SDS011;57473;37.508;15.080;2022-07-29T06:56:27;11.60;;;7.35;;
70106;SDS011;57473;37.508;15.080;2022-07-29T06:59:08;16.90;;;7.50;;
70106;SDS011;57473;37.508;15.080;2022-07-29T07:01:37;10.35;;;7.38;;
70106;SDS011;57473;37.508;15.080;2022-07-29T07:04:06;15.95;;;7.32;;
70106;SDS011;57473;37.508;15.080;2022-07-29T07:06:35;11.07;;;7.07;;
70106;SDS011;57473;37.508;15.080;2022-07-29T07:09:03;11.57;;;7.38;;
70106;SDS011;57473;37.508;15.080;2022-07-29T07:11:30;11.07;;;7.50;;
70106;SDS011;57473;37.508;15.080;2022-07-29T07:13:57;8.60;;;7.07;;
70106;SDS011;57473;37.508;15.080;2022-07-29T07:16:29;11.65;;;6.97;;
70106;SDS011;57473;37.508;15.080;2022-07-29T07:18:57;12.48;;;7.38;;
70106;SDS011;57473;37.508;15.080;2022-07-29T07:21:24;12.23;;;8.15;;
70106;SDS011;57473;37.508;15.080;2022-07-29T07:23:55;11.45;;;7.15;;
70106;SDS011;57473;37.508;15.080;2022-07-29T07:26:23;8.73;;;7.00;;
70106;SDS011;57473;37.508;15.080;2022-07-29T07:28:50;12.35;;;7.53;;
70106;SDS011;57473;37.508;15.080;2022-07-29T07:31:17;9.88;;;6.88;;
70106;SDS011;57473;37.508;15.080;2022-07-29T07:33:45;9.52;;;6.78;;
70106;SDS011;57473;37.508;15.080;2022-07-29T07:36:12;11.20;;;6.90;;
70106;SDS011;57473;37.508;15.080;2022-07-29T07:38:40;9.70;;;7.15;;
70106;SDS011;57473;37.508;15.080;2022-07-29T07:41:08;11.02;;;6.60;;
70106;SDS011;57473;37.508;15.080;2022-07-29T07:43:40;12.00;;;7.13;;
70106;SDS011;57473;37.508;15.080;2022-07-29T07:46:59;9.68;;;6.80;;
70106;SDS011;57473;37.508;15.080;2022-07-29T07:50:24;12.68;;;7.00;;
70106;SDS011;57473;37.508;15.080;2022-07-29T07:53:15;11.77;;;7.03;;
70106;SDS011;57473;37.508;15.080;2022-07-29T07:55:57;10.52;;;7.07;;
70106;SDS011;57473;37.508;15.080;2022-07-29T07:58:44;15.02;;;7.20;;
70106;SDS011;57473;37.508;15.080;2022-07-29T08:01:47;12.18;;;7.78;;
70106;SDS011;57473;37.508;15.080;2022-07-29T08:04:51;14.07;;;8.40;;
70106;SDS011;57473;37.508;15.080;2022-07-29T08:08:01;11.57;;;7.93;;
70106;SDS011;57473;37.508;15.080;2022-07-29T08:10:29;17.88;;;6.72;;
70106;SDS011;57473;37.508;15.080;2022-07-29T08:13:15;10.82;;;7.63;;
70106;SDS011;57473;37.508;15.080;2022-07-29T08:15:50;10.05;;;7.47;;
70106;SDS011;57473;37.508;15.080;2022-07-29T08:18:37;10.05;;;6.85;;
70106;SDS011;57473;37.508;15.080;2022-07-29T08:21:14;9.45;;;6.43;;
70106;SDS011;57473;37.508;15.080;2022-07-29T08:23:43;9.98;;;7.30;;
70106;SDS011;57473;37.508;15.080;2022-07-29T08:26:25;8.80;;;6.68;;
70106;SDS011;57473;37.508;15.080;2022-07-29T08:29:00;9.63;;;6.45;;
70106;SDS011;57473;37.508;15.080;2022-07-29T08:31:37;11.60;;;6.78;;
70106;SDS011;57473;37.508;15.080;2022-07-29T08:34:06;10.50;;;7.90;;
70106;SDS011;57473;37.508;15.080;2022-07-29T08:36:33;11.77;;;6.78;;
70106;SDS011;57473;37.508;15.080;2022-07-29T08:39:02;11.55;;;7.10;;
70106;SDS011;57473;37.508;15.080;2022-07-29T08:41:30;14.43;;;8.02;;
70106;SDS011;57473;37.508;15.080;2022-07-29T08:44:23;12.88;;;6.40;;
70106;SDS011;57473;37.508;15.080;2022-07-29T08:46:56;8.63;;;5.93;;
70106;SDS011;57473;37.508;15.080;2022-07-29T08:51:55;9.80;;;7.43;;
70106;SDS011;57473;37.508;15.080;2022-07-29T08:54:25;10.43;;;6.13;;
70106;SDS011;57473;37.508;15.080;2022-07-29T08:56:52;9.75;;;5.80;;
70106;SDS011;57473;37.508;15.080;2022-07-29T08:59:22;11.88;;;6.00;;
70106;SDS011;57473;37.508;15.080;2022-07-29T09:01:56;9.00;;;6.15;;
70106;SDS011;57473;37.508;15.080;2022-07-29T09:04:30;8.57;;;5.55;;
70106;SDS011;57473;37.508;15.080;2022-07-29T09:07:03;8.98;;;5.60;;
70106;SDS011;57473;37.508;15.080;2022-07-29T09:09:32;7.63;;;6.07;;
70106;SDS011;57473;37.508;15.080;2022-07-29T09:12:00;11.05;;;5.80;;
70106;SDS011;57473;37.508;15.080;2022-07-29T09:14:56;10.73;;;6.60;;
70106;SDS011;57473;37.508;15.080;2022-07-29T09:17:45;10.50;;;6.25;;
70106;SDS011;57473;37.508;15.080;2022-07-29T09:20:17;8.48;;;5.65;;
70106;SDS011;57473;37.508;15.080;2022-07-29T09:22:52;11.25;;;5.60;;
70106;SDS011;57473;37.508;15.080;2022-07-29T09:25:33;8.70;;;5.45;;
70106;SDS011;57473;37.508;15.080;2022-07-29T09:28:20;8.30;;;5.70;;
70106;SDS011;57473;37.508;15.080;2022-07-29T09:30:57;8.45;;;6.03;;
70106;SDS011;57473;37.508;15.080;2022-07-29T09:33:30;7.13;;;5.30;;
70106;SDS011;57473;37.508;15.080;2022-07-29T09:36:06;9.55;;;5.85;;
70106;SDS011;57473;37.508;15.080;2022-07-29T09:38:35;9.60;;;5.85;;
70106;SDS011;57473;37.508;15.080;2022-07-29T09:41:04;8.13;;;5.47;;
70106;SDS011;57473;37.508;15.080;2022-07-29T09:43:33;9.02;;;5.95;;
70106;SDS011;57473;37.508;15.080;2022-07-29T09:46:10;13.95;;;6.82;;
70106;SDS011;57473;37.508;15.080;2022-07-29T09:49:05;9.55;;;5.82;;
70106;SDS011;57473;37.508;15.080;2022-07-29T09:51:36;8.52;;;6.07;;
70106;SDS011;57473;37.508;15.080;2022-07-29T09:54:23;11.40;;;5.97;;
70106;SDS011;57473;37.508;15.080;2022-07-29T09:56:52;11.13;;;5.95;;
70106;SDS011;57473;37.508;15.080;2022-07-29T09:59:21;8.23;;;6.18;;
70106;SDS011;57473;37.508;15.080;2022-07-29T10:01:52;11.02;;;5.97;;
70106;SDS011;57473;37.508;15.080;2022-07-29T10:04:21;11.45;;;6.43;;
70106;SDS011;57473;37.508;15.080;2022-07-29T10:06:55;8.48;;;5.78;;
70106;SDS011;57473;37.508;15.080;2022-07-29T10:09:31;9.43;;;5.97;;
70106;SDS011;57473;37.508;15.080;2022-07-29T10:12:11;8.82;;;5.35;;
70106;SDS011;57473;37.508;15.080;2022-07-29T10:14:45;7.75;;;5.88;;
70106;SDS011;57473;37.508;15.080;2022-07-29T10:17:14;10.73;;;5.53;;
70106;SDS011;57473;37.508;15.080;2022-07-29T10:19:43;8.30;;;5.47;;
70106;SDS011;57473;37.508;15.080;2022-07-29T10:22:10;8.75;;;5.65;;
70106;SDS011;57473;37.508;15.080;2022-07-29T10:24:38;11.43;;;5.93;;
70106;SDS011;57473;37.508;15.080;2022-07-29T10:27:06;10.20;;;6.00;;
70106;SDS011;57473;37.508;15.080;2022-07-29T10:29:35;9.30;;;5.95;;
70106;SDS011;57473;37.508;15.080;2022-07-29T10:35:21;9.75;;;5.68;;
70106;SDS011;57473;37.508;15.080;2022-07-29T10:41:15;13.15;;;9.00;;
70106;SDS011;57473;37.508;15.080;2022-07-29T10:44:12;8.77;;;7.03;;
70106;SDS011;57473;37.508;15.080;2022-07-29T10:46:49;13.60;;;6.20;;
70106;SDS011;57473;37.508;15.080;2022-07-29T11:02:43;57.03;;;38.63;;
70106;SDS011;57473;37.508;15.080;2022-07-29T11:05:20;22.30;;;14.57;;
70106;SDS011;57473;37.508;15.080;2022-07-29T11:10:49;16.65;;;9.40;;
70106;SDS011;57473;37.508;15.080;2022-07-29T11:16:09;20.40;;;12.75;;
70106;SDS011;57473;37.508;15.080;2022-07-29T11:21:40;13.57;;;8.70;;
70106;SDS011;57473;37.508;15.080;2022-07-29T11:29:58;7.25;;;6.20;;
70106;SDS011;57473;37.508;15.080;2022-07-29T11:32:37;9.20;;;6.18;;
70106;SDS011;57473;37.508;15.080;2022-07-29T11:38:47;16.60;;;9.45;;
70106;SDS011;57473;37.508;15.080;2022-07-29T11:43:47;13.23;;;6.75;;
70106;SDS011;57473;37.508;15.080;2022-07-29T11:49:26;9.05;;;5.97;;
70106;SDS011;57473;37.508;15.080;2022-07-29T11:51:58;8.70;;;5.57;;
70106;SDS011;57473;37.508;15.080;2022-07-29T11:57:20;6.00;;;4.85;;
70106;SDS011;57473;37.508;15.080;2022-07-29T11:59:47;9.35;;;5.50;;
70106;SDS011;57473;37.508;15.080;2022-07-29T12:02:16;8.77;;;5.60;;
70106;SDS011;57473;37.508;15.080;2022-07-29T12:05:03;15.32;;;9.75;;
70106;SDS011;57473;37.508;15.080;2022-07-29T12:07:37;9.00;;;5.75;;
70106;SDS011;57473;37.508;15.080;2022-07-29T12:10:11;16.30;;;6.90;;
70106;SDS011;57473;37.508;15.080;2022-07-29T12:12:50;10.55;;;5.80;;
70106;SDS011;57473;37.508;15.080;2022-07-29T12:15:26;7.97;;;6.32;;
70106;SDS011;57473;37.508;15.080;2022-07-29T12:18:13;8.63;;;5.38;;
70106;SDS011;57473;37.508;15.080;2022-07-29T12:20:44;25.88;;;12.80;;
70106;SDS011;57473;37.508;15.080;2022-07-29T12:23:12;17.08;;;11.95;;
70106;SDS011;57473;37.508;15.080;2022-07-29T12:25:42;8.52;;;5.90;;
70106;SDS011;57473;37.508;15.080;2022-07-29T12:28:15;11.43;;;6.82;;
70106;SDS011;57473;37.508;15.080;2022-07-29T12:30:53;14.18;;;6.20;;
70106;SDS011;57473;37.508;15.080;2022-07-29T12:33:22;11.98;;;5.80;;
70106;SDS011;57473;37.508;15.080;2022-07-29T12:35:57;9.43;;;6.85;;
70106;SDS011;57473;37.508;15.080;2022-07-29T12:38:42;10.35;;;5.45;;
70106;SDS011;57473;37.508;15.080;2022-07-29T12:41:10;9.70;;;5.72;;
70106;SDS011;57473;37.508;15.080;2022-07-29T12:43:47;9.82;;;5.95;;
70106;SDS011;57473;37.508;15.080;2022-07-29T12:46:21;7.07;;;4.80;;
70106;SDS011;57473;37.508;15.080;2022-07-29T12:48:51;12.57;;;6.22;;
70106;SDS011;57473;37.508;15.080;2022-07-29T12:51:33;8.15;;;5.35;;
70106;SDS011;57473;37.508;15.080;2022-07-29T12:56:32;10.30;;;4.90;;
70106;SDS011;57473;37.508;15.080;2022-07-29T12:59:19;8.43;;;5.22;;
70106;SDS011;57473;37.508;15.080;2022-07-29T13:01:54;9.00;;;4.90;;
70106;SDS011;57473;37.508;15.080;2022-07-29T13:04:31;9.13;;;5.10;;
70106;SDS011;57473;37.508;15.080;2022-07-29T13:07:07;8.18;;;4.80;;
70106;SDS011;57473;37.508;15.080;2022-07-29T13:09:37;7.60;;;5.20;;
70106;SDS011;57473;37.508;15.080;2022-07-29T13:12:10;7.60;;;4.75;;
70106;SDS011;57473;37.508;15.080;2022-07-29T13:14:40;10.80;;;5.00;;
70106;SDS011;57473;37.508;15.080;2022-07-29T13:19:45;8.18;;;4.47;;
70106;SDS011;57473;37.508;15.080;2022-07-29T13:22:17;9.23;;;4.90;;
70106;SDS011;57473;37.508;15.080;2022-07-29T13:24:55;8.02;;;4.95;;
70106;SDS011;57473;37.508;15.080;2022-07-29T13:27:29;7.22;;;4.93;;
70106;SDS011;57473;37.508;15.080;2022-07-29T13:30:05;10.00;;;5.20;;
70106;SDS011;57473;37.508;15.080;2022-07-29T13:32:37;7.45;;;4.97;;
70106;SDS011;57473;37.508;15.080;2022-07-29T13:35:08;8.02;;;4.07;;
70106;SDS011;57473;37.508;15.080;2022-07-29T13:37:39;5.32;;;4.28;;
70106;SDS011;57473;37.508;15.080;2022-07-29T13:40:10;8.00;;;4.45;;
70106;SDS011;57473;37.508;15.080;2022-07-29T13:42:39;6.70;;;4.30;;
70106;SDS011;57473;37.508;15.080;2022-07-29T13:45:14;9.27;;;4.60;;
70106;SDS011;57473;37.508;15.080;2022-07-29T13:47:55;8.73;;;4.72;;
70106;SDS011;57473;37.508;15.080;2022-07-29T13:50:22;8.55;;;4.35;;
70106;SDS011;57473;37.508;15.080;2022-07-29T13:52:53;5.75;;;4.45;;
70106;SDS011;57473;37.508;15.080;2022-07-29T13:55:24;6.47;;;4.22;;
70106;SDS011;57473;37.508;15.080;2022-07-29T13:57:52;7.90;;;4.30;;
70106;SDS011;57473;37.508;15.080;2022-07-29T14:00:21;9.40;;;4.47;;
70106;SDS011;57473;37.508;15.080;2022-07-29T14:02:51;10.35;;;5.28;;
70106;SDS011;57473;37.508;15.080;2022-07-29T14:05:19;7.93;;;5.22;;
70106;SDS011;57473;37.508;15.080;2022-07-29T14:07:46;9.85;;;4.70;;
70106;SDS011;57473;37.508;15.080;2022-07-29T14:10:16;5.70;;;4.50;;
70106;SDS011;57473;37.508;15.080;2022-07-29T14:12:46;6.63;;;4.53;;
70106;SDS011;57473;37.508;15.080;2022-07-29T14:15:16;5.68;;;4.50;;
70106;SDS011;57473;37.508;15.080;2022-07-29T14:17:44;8.75;;;4.93;;
70106;SDS011;57473;37.508;15.080;2022-07-29T14:20:14;6.05;;;4.47;;
70106;SDS011;57473;37.508;15.080;2022-07-29T14:22:42;6.85;;;4.32;;
70106;SDS011;57473;37.508;15.080;2022-07-29T14:25:11;8.85;;;4.90;;
70106;SDS011;57473;37.508;15.080;2022-07-29T14:27:41;7.47;;;4.55;;
70106;SDS011;57473;37.508;15.080;2022-07-29T14:30:09;8.38;;;4.80;;
70106;SDS011;57473;37.508;15.080;2022-07-29T14:32:37;7.57;;;4.70;;
70106;SDS011;57473;37.508;15.080;2022-07-29T14:35:05;9.15;;;5.03;;
70106;SDS011;57473;37.508;15.080;2022-07-29T14:37:34;9.63;;;5.10;;
70106;SDS011;57473;37.508;15.080;2022-07-29T14:40:06;6.68;;;4.97;;
70106;SDS011;57473;37.508;15.080;2022-07-29T14:42:35;7.32;;;4.93;;
70106;SDS011;57473;37.508;15.080;2022-07-29T14:45:04;8.82;;;4.88;;
70106;SDS011;57473;37.508;15.080;2022-07-29T14:47:33;6.40;;;5.20;;
70106;SDS011;57473;37.508;15.080;2022-07-29T14:50:00;6.85;;;4.95;;
70106;SDS011;57473;37.508;15.080;2022-07-29T14:52:28;8.48;;;6.03;;
70106;SDS011;57473;37.508;15.080;2022-07-29T14:55:01;10.07;;;5.80;;
70106;SDS011;57473;37.508;15.080;2022-07-29T14:59:56;7.15;;;5.75;;
70106;SDS011;57473;37.508;15.080;2022-07-29T15:02:23;7.70;;;5.35;;
70106;SDS011;57473;37.508;15.080;2022-07-29T15:05:12;7.88;;;6.25;;
70106;SDS011;57473;37.508;15.080;2022-07-29T15:07:39;12.13;;;6.10;;
70106;SDS011;57473;37.508;15.080;2022-07-29T15:10:07;8.15;;;5.82;;
70106;SDS011;57473;37.508;15.080;2022-07-29T15:12:34;7.35;;;5.57;;
70106;SDS011;57473;37.508;15.080;2022-07-29T15:15:02;8.50;;;6.18;;
70106;SDS011;57473;37.508;15.080;2022-07-29T15:17:29;7.55;;;5.68;;
70106;SDS011;57473;37.508;15.080;2022-07-29T15:19:56;10.88;;;6.15;;
70106;SDS011;57473;37.508;15.080;2022-07-29T15:22:30;7.70;;;6.03;;
70106;SDS011;57473;37.508;15.080;2022-07-29T15:24:57;8.55;;;6.40;;
70106;SDS011;57473;37.508;15.080;2022-07-29T15:27:24;8.10;;;6.00;;
70106;SDS011;57473;37.508;15.080;2022-07-29T15:29:52;10.15;;;6.00;;
70106;SDS011;57473;37.508;15.080;2022-07-29T15:32:19;9.68;;;6.15;;
70106;SDS011;57473;37.508;15.080;2022-07-29T15:34:46;9.43;;;5.88;;
70106;SDS011;57473;37.508;15.080;2022-07-29T15:37:14;10.15;;;6.70;;
70106;SDS011;57473;37.508;15.080;2022-07-29T15:39:41;9.35;;;7.10;;
70106;SDS011;57473;37.508;15.080;2022-07-29T15:42:09;9.30;;;6.45;;
70106;SDS011;57473;37.508;15.080;2022-07-29T15:44:36;12.63;;;6.38;;
70106;SDS011;57473;37.508;15.080;2022-07-29T15:47:04;10.50;;;6.65;;
70106;SDS011;57473;37.508;15.080;2022-07-29T15:49:37;7.80;;;6.38;;
70106;SDS011;57473;37.508;15.080;2022-07-29T15:52:17;11.18;;;6.22;;
70106;SDS011;57473;37.508;15.080;2022-07-29T15:54:51;10.75;;;6.03;;
70106;SDS011;57473;37.508;15.080;2022-07-29T15:57:23;9.10;;;7.10;;
70106;SDS011;57473;37.508;15.080;2022-07-29T15:59:50;8.52;;;6.07;;